Time;durP1;ratioP1;P1;durP2;ratioP2;P2;SDS_P1;SDS_P2;PMS_P1;PMS_P2;Temp;Humidity;BMP_temperature;BMP_pressure;BME280_temperature;BME280_humidity;BME280_pressure;Samples;Min_cycle;Max_cycle;Signal;HPM_P1;HPM_P2
2021/06/07 00:01:47;;;;;;;;;;;11.80;99.90;;;;;;5113860;28;20266;-69
2021/06/07 00:04:14;;;;;;;;;;;11.90;99.90;;;;;;5113866;28;19961;-69
2021/06/07 00:06:41;;;;;;;;;;;11.90;99.90;;;;;;5113675;28;19916;-69
2021/06/07 00:09:10;;;;;;;;;;;12.00;99.90;;;;;;5113629;28;20278;-69
2021/06/07 00:11:38;;;;;;;;;;;12.10;99.90;;;;;;5113657;28;19969;-70
2021/06/07 00:14:06;;;;;;;;;;;12.00;99.90;;;;;;5112350;28;20369;-69
2021/06/07 00:16:33;;;;;;;;;;;12.20;99.90;;;;;;5113819;28;19915;-69
2021/06/07 00:19:00;;;;;;;;;;;12.20;99.90;;;;;;5113481;28;19916;-70
2021/06/07 00:21:28;;;;;;;;;;;12.20;99.90;;;;;;5113845;28;20282;-69
2021/06/07 00:23:55;;;;;;;;;;;12.30;99.90;;;;;;5113526;28;19908;-69
2021/06/07 00:26:22;;;;;;;;;;;12.40;99.90;;;;;;5113081;28;19938;-70
2021/06/07 00:28:49;;;;;;;;;;;12.50;99.90;;;;;;5113348;28;19907;-70
2021/06/07 00:31:16;;;;;;;;;;;12.50;99.90;;;;;;5113479;28;19969;-70
2021/06/07 00:33:42;;;;;;;;;;;12.60;99.90;;;;;;5113489;28;20403;-70
2021/06/07 00:36:09;;;;;;;;;;;12.60;99.90;;;;;;5101413;28;20290;-69
2021/06/07 00:38:36;;;;;;;;;;;12.70;99.90;;;;;;5080941;28;19965;-69
2021/06/07 00:41:04;;;;;;;;;;;12.70;99.90;;;;;;5072975;28;20002;-69
2021/06/07 00:43:32;;;;;;;;;;;12.80;99.90;;;;;;5073016;28;19909;-69
2021/06/07 00:45:59;;;;;;;;;;;12.90;99.90;;;;;;5072717;28;19921;-70
2021/06/07 00:48:27;;;;;;;;;;;13.00;99.90;;;;;;5073168;28;19931;-69
2021/06/07 00:51:15;;;;;;;;;;;13.00;99.90;;;;;;5073144;28;19916;-69
2021/06/07 00:53:42;;;;;;;;;;;13.10;99.90;;;;;;5072781;28;19913;-69
2021/06/07 00:56:10;;;;;;;;;;;13.30;99.90;;;;;;5076826;28;19958;-69
2021/06/07 00:58:38;;;;;;;;;;;13.40;99.90;;;;;;5076718;28;19916;-68
2021/06/07 01:01:06;;;;;;;;;;;13.40;99.90;;;;;;5076989;28;19920;-69
2021/06/07 01:03:35;;;;;;;;;;;13.80;99.90;;;;;;5078264;28;20329;-69
2021/06/07 01:06:05;;;;;;;;;;;13.90;99.90;;;;;;5079397;28;19970;-70
2021/06/07 01:08:32;;;;;;;;;;;14.10;99.90;;;;;;5078104;28;19914;-70
2021/06/07 01:11:00;;;;;;;;;;;14.30;99.90;;;;;;5076752;28;19912;-69
2021/06/07 01:13:27;;;;;;;;;;;14.30;99.90;;;;;;5076563;28;19999;-70
2021/06/07 01:15:54;;;;;;;;;;;14.40;99.90;;;;;;5076689;28;19919;-70
2021/06/07 01:18:23;;;;;;;;;;;14.60;99.90;;;;;;5076629;28;19916;-70
2021/06/07 01:20:51;;;;;;;;;;;14.90;99.90;;;;;;5076106;28;19909;-70
2021/06/07 01:23:18;;;;;;;;;;;14.90;99.90;;;;;;5076465;28;19961;-70
2021/06/07 01:25:45;;;;;;;;;;;15.00;99.90;;;;;;5076304;28;19966;-69
2021/06/07 01:28:13;;;;;;;;;;;15.00;99.90;;;;;;5076096;28;19908;-68
2021/06/07 01:30:42;;;;;;;;;;;15.20;99.90;;;;;;5076185;28;19989;-70
2021/06/07 01:33:10;;;;;;;;;;;15.30;99.90;;;;;;5076227;28;19915;-69
2021/06/07 01:35:37;;;;;;;;;;;15.30;99.90;;;;;;5076074;28;20256;-69
2021/06/07 01:38:04;;;;;;;;;;;15.20;99.90;;;;;;5076319;28;20121;-70
2021/06/07 01:40:36;;;;;;;;;;;15.20;99.90;;;;;;5076387;28;19954;-69
2021/06/07 01:43:03;;;;;;;;;;;15.10;99.90;;;;;;5075797;28;19908;-69
2021/06/07 01:45:30;;;;;;;;;;;15.10;99.90;;;;;;5075832;28;19920;-69
2021/06/07 01:47:58;;;;;;;;;;;15.10;99.90;;;;;;5076017;28;19908;-69
2021/06/07 01:50:25;;;;;;;;;;;15.20;99.90;;;;;;5075765;28;19908;-69
2021/06/07 01:52:52;;;;;;;;;;;15.20;99.90;;;;;;5075501;28;19912;-69
2021/06/07 01:55:24;;;;;;;;;;;15.20;99.90;;;;;;5075498;28;19916;-70
2021/06/07 01:57:52;;;;;;;;;;;15.20;99.90;;;;;;5075445;28;19909;-69
2021/06/07 02:00:24;;;;;;;;;;;15.10;99.90;;;;;;5057709;28;20023;-69
2021/06/07 02:02:50;;;;;;;;;;;15.00;99.90;;;;;;5075316;28;19908;-70
2021/06/07 02:05:19;;;;;;;;;;;15.00;99.90;;;;;;5075282;28;19954;-71
2021/06/07 02:07:52;;;;;;;;;;;15.10;99.90;;;;;;5075370;28;19909;-70
2021/06/07 02:10:20;;;;;;;;;;;15.40;99.90;;;;;;5075429;28;19916;-69
2021/06/07 02:12:47;;;;;;;;;;;15.60;99.90;;;;;;5075106;28;19909;-70
2021/06/07 02:15:15;;;;;;;;;;;15.90;99.90;;;;;;5075377;28;19916;-70
2021/06/07 02:17:42;;;;;;;;;;;16.40;99.90;;;;;;5075458;28;19950;-70
2021/06/07 02:20:14;;;;;;;;;;;16.40;99.90;;;;;;5075016;28;19912;-70
2021/06/07 02:22:42;;;;;;;;;;;16.50;99.90;;;;;;5075138;28;19909;-70
2021/06/07 02:25:10;;;;;;;;;;;16.40;99.90;;;;;;5075090;28;20426;-71
2021/06/07 02:27:37;;;;;;;;;;;16.40;99.90;;;;;;5074007;28;20291;-72
2021/06/07 02:30:08;;;;;;;;;;;16.40;99.90;;;;;;5093120;28;19915;-71
2021/06/07 02:32:35;;;;;;;;;;;16.40;99.90;;;;;;5115963;28;19957;-70
2021/06/07 02:35:03;;;;;;;;;;;16.60;99.90;;;;;;5117258;28;19908;-71
2021/06/07 02:37:30;;;;;;;;;;;16.70;99.70;;;;;;5117152;28;20251;-71
2021/06/07 02:40:00;;;;;;;;;;;16.80;99.50;;;;;;5117156;28;19912;-70
2021/06/07 02:42:27;;;;;;;;;;;16.80;99.10;;;;;;5115417;28;19947;-70
2021/06/07 02:44:53;;;;;;;;;;;16.90;98.50;;;;;;5113401;28;19927;-70
2021/06/07 02:47:20;;;;;;;;;;;17.00;97.90;;;;;;5115216;28;19912;-69
2021/06/07 02:49:47;;;;;;;;;;;17.20;97.10;;;;;;5115216;28;19915;-69
2021/06/07 02:52:13;;;;;;;;;;;17.20;94.80;;;;;;5115108;28;19908;-69
2021/06/07 02:54:40;;;;;;;;;;;17.20;94.10;;;;;;5115304;28;19908;-69
2021/06/07 02:57:07;;;;;;;;;;;17.20;93.80;;;;;;5114617;28;19914;-69
2021/06/07 02:59:34;;;;;;;;;;;17.30;93.10;;;;;;5114910;28;20377;-70
2021/06/07 03:02:00;;;;;;;;;;;17.20;93.10;;;;;;5115030;28;19913;-70
2021/06/07 03:04:27;;;;;;;;;;;17.30;92.90;;;;;;5114652;28;19908;-69
2021/06/07 03:06:54;;;;;;;;;;;17.20;92.60;;;;;;5114468;28;19951;-69
2021/06/07 03:09:20;;;;;;;;;;;17.20;92.90;;;;;;5113396;28;19911;-70
2021/06/07 03:11:47;;;;;;;;;;;17.30;92.40;;;;;;5114747;28;19915;-70
2021/06/07 03:14:14;;;;;;;;;;;17.30;91.20;;;;;;5114029;28;19907;-70
2021/06/07 03:16:40;;;;;;;;;;;17.30;92.10;;;;;;5114673;28;20602;-70
2021/06/07 03:19:07;;;;;;;;;;;17.30;89.20;;;;;;5114718;28;19912;-71
2021/06/07 03:21:34;;;;;;;;;;;17.20;90.20;;;;;;5114549;28;20440;-70
2021/06/07 03:24:00;;;;;;;;;;;17.20;90.50;;;;;;5114519;28;20343;-70
2021/06/07 03:26:30;;;;;;;;;;;17.30;88.70;;;;;;5114297;28;19915;-70
2021/06/07 03:28:57;;;;;;;;;;;17.20;87.00;;;;;;5114032;28;19968;-70
2021/06/07 03:31:23;;;;;;;;;;;17.20;89.70;;;;;;5114360;28;20286;-70
2021/06/07 03:33:50;;;;;;;;;;;17.20;89.20;;;;;;5114358;28;19908;-70
2021/06/07 03:36:22;;;;;;;;;;;17.30;89.50;;;;;;5114299;28;20048;-70
2021/06/07 03:38:48;;;;;;;;;;;17.40;88.60;;;;;;5114127;28;19914;-68
2021/06/07 03:41:16;;;;;;;;;;;17.50;86.50;;;;;;5114329;28;19914;-69
2021/06/07 03:43:42;;;;;;;;;;;17.50;86.40;;;;;;5113352;28;19922;-69
2021/06/07 03:46:14;;;;;;;;;;;17.50;87.10;;;;;;5113885;28;19920;-69
2021/06/07 03:48:41;;;;;;;;;;;17.50;87.10;;;;;;5114120;28;19908;-69
2021/06/07 03:51:09;;;;;;;;;;;17.40;87.20;;;;;;5113951;28;19908;-69
2021/06/07 03:53:36;;;;;;;;;;;17.40;85.30;;;;;;5113931;28;19914;-70
2021/06/07 03:56:03;;;;;;;;;;;17.50;84.20;;;;;;5113950;28;19960;-70
2021/06/07 03:58:31;;;;;;;;;;;17.60;81.90;;;;;;5113945;28;19914;-70
2021/06/07 04:00:59;;;;;;;;;;;17.60;82.80;;;;;;5113470;28;19908;-70
2021/06/07 04:03:26;;;;;;;;;;;17.60;82.90;;;;;;5113765;28;19998;-70
2021/06/07 04:05:52;;;;;;;;;;;17.60;82.90;;;;;;5114899;28;19927;-70
2021/06/07 04:08:19;;;;;;;;;;;17.50;80.00;;;;;;5115274;28;19969;-71
2021/06/07 04:10:49;;;;;;;;;;;17.50;80.10;;;;;;5116254;28;19911;-70
2021/06/07 04:13:15;;;;;;;;;;;17.40;80.10;;;;;;5112380;28;19931;-70
2021/06/07 04:15:42;;;;;;;;;;;17.40;79.60;;;;;;5113810;28;20274;-70
2021/06/07 04:18:09;;;;;;;;;;;17.50;77.70;;;;;;5113912;28;20324;-70
2021/06/07 04:20:35;;;;;;;;;;;17.40;79.30;;;;;;5113828;28;19908;-70
2021/06/07 04:23:02;;;;;;;;;;;17.50;80.20;;;;;;5113401;28;19986;-70
2021/06/07 04:25:31;;;;;;;;;;;17.60;77.60;;;;;;5112787;28;19920;-70
2021/06/07 04:27:58;;;;;;;;;;;17.60;77.40;;;;;;5113696;28;19951;-70
2021/06/07 04:30:26;;;;;;;;;;;17.60;93.00;;;;;;5113730;28;19919;-70
2021/06/07 04:32:53;;;;;;;;;;;17.50;96.90;;;;;;5113404;28;19965;-70
2021/06/07 04:35:21;;;;;;;;;;;17.50;92.20;;;;;;5113744;28;20354;-70
2021/06/07 04:37:51;;;;;;;;;;;17.50;87.00;;;;;;5113637;28;19911;-70
2021/06/07 04:40:26;;;;;;;;;;;17.50;95.20;;;;;;5113656;28;19943;-70
2021/06/07 04:42:53;;;;;;;;;;;17.40;97.40;;;;;;5113065;28;20010;-70
2021/06/07 04:45:20;;;;;;;;;;;17.30;98.80;;;;;;5113214;28;19923;-71
2021/06/07 04:47:50;;;;;;;;;;;17.20;99.50;;;;;;5113585;28;19908;-70
2021/06/07 04:50:19;;;;;;;;;;;17.10;99.90;;;;;;5113440;28;20350;-70
2021/06/07 04:53:02;;;;;;;;;;;17.10;99.90;;;;;;5113404;28;19915;-70
2021/06/07 04:55:39;;;;;;;;;;;17.00;99.90;;;;;;5112642;28;19965;-70
2021/06/07 04:58:27;;;;;;;;;;;17.00;99.90;;;;;;5113398;28;19908;-69
2021/06/07 05:00:58;;;;;;;;;;;17.10;99.90;;;;;;5112970;28;19908;-70
2021/06/07 05:03:26;;;;;;;;;;;17.00;99.90;;;;;;5112082;28;20419;-69
2021/06/07 05:05:53;;;;;;;;;;;16.90;99.90;;;;;;5113125;28;19915;-69
2021/06/07 05:08:20;;;;;;;;;;;16.90;99.90;;;;;;5113171;28;20388;-69
2021/06/07 05:10:47;;;;;;;;;;;16.80;99.90;;;;;;5113045;28;19961;-70
2021/06/07 05:13:14;;;;;;;;;;;16.80;99.90;;;;;;5113101;28;19915;-70
2021/06/07 05:15:41;;;;;;;;;;;16.90;99.90;;;;;;5113137;28;19908;-70
2021/06/07 05:18:08;;;;;;;;;;;16.80;99.90;;;;;;5113216;28;20377;-70
2021/06/07 05:20:35;;;;;;;;;;;16.70;99.90;;;;;;5113112;28;20416;-71
2021/06/07 05:23:02;;;;;;;;;;;16.80;99.90;;;;;;5112754;28;20056;-70
2021/06/07 05:25:31;;;;;;;;;;;16.70;99.90;;;;;;5112942;28;19920;-71
2021/06/07 05:27:59;;;;;;;;;;;16.80;99.90;;;;;;5112506;28;19930;-71
2021/06/07 05:30:27;;;;;;;;;;;16.80;99.90;;;;;;5112931;28;20047;-71
2021/06/07 05:32:54;;;;;;;;;;;16.80;99.90;;;;;;5112845;28;19911;-70
2021/06/07 05:35:24;;;;;;;;;;;16.80;99.90;;;;;;5113734;28;19915;-70
2021/06/07 05:37:51;;;;;;;;;;;16.80;99.90;;;;;;5116307;28;19908;-71
2021/06/07 05:40:18;;;;;;;;;;;16.70;99.90;;;;;;5118069;28;20018;-71
2021/06/07 05:42:46;;;;;;;;;;;16.70;99.90;;;;;;5116669;28;20316;-72
2021/06/07 05:45:13;;;;;;;;;;;16.70;99.90;;;;;;5114985;28;19927;-70
2021/06/07 05:47:40;;;;;;;;;;;16.70;99.90;;;;;;5116698;28;19965;-71
2021/06/07 05:50:09;;;;;;;;;;;16.70;99.90;;;;;;5116605;28;19907;-71
2021/06/07 05:52:35;;;;;;;;;;;16.70;99.90;;;;;;5116565;28;19908;-70
2021/06/07 05:55:03;;;;;;;;;;;16.60;99.90;;;;;;5116056;28;20346;-70
2021/06/07 05:57:29;;;;;;;;;;;16.60;99.90;;;;;;5116384;28;20002;-71
2021/06/07 05:59:56;;;;;;;;;;;16.60;99.90;;;;;;5116465;28;19908;-71
2021/06/07 06:02:23;;;;;;;;;;;16.50;99.90;;;;;;5116324;28;20322;-71
2021/06/07 06:04:49;;;;;;;;;;;16.50;99.90;;;;;;5116161;28;20259;-70
2021/06/07 06:07:16;;;;;;;;;;;16.50;99.90;;;;;;5115945;28;19923;-70
2021/06/07 06:09:43;;;;;;;;;;;16.40;99.90;;;;;;5114817;28;19914;-71
2021/06/07 06:12:11;;;;;;;;;;;16.40;99.90;;;;;;5115830;28;19908;-72
2021/06/07 06:14:37;;;;;;;;;;;16.40;99.90;;;;;;5116312;28;19974;-71
2021/06/07 06:17:06;;;;;;;;;;;16.40;99.90;;;;;;5115763;28;19908;-70
2021/06/07 06:19:32;;;;;;;;;;;16.30;99.90;;;;;;5115950;28;19919;-70
2021/06/07 06:22:03;;;;;;;;;;;16.30;99.90;;;;;;5115761;28;20007;-72
2021/06/07 06:24:30;;;;;;;;;;;16.30;99.90;;;;;;5115948;28;19915;-72
2021/06/07 06:26:57;;;;;;;;;;;16.20;99.90;;;;;;5115265;28;20293;-72
2021/06/07 06:29:23;;;;;;;;;;;16.10;99.90;;;;;;5115769;28;20332;-71
2021/06/07 06:31:50;;;;;;;;;;;16.10;99.90;;;;;;5115788;28;19907;-71
2021/06/07 06:34:17;;;;;;;;;;;16.00;99.90;;;;;;5115705;28;19907;-71
2021/06/07 06:36:43;;;;;;;;;;;16.00;99.90;;;;;;5115334;28;19908;-72
2021/06/07 06:39:10;;;;;;;;;;;16.00;99.90;;;;;;5115000;28;20282;-72
2021/06/07 06:41:40;;;;;;;;;;;15.90;99.90;;;;;;5115464;28;19986;-71
2021/06/07 06:44:07;;;;;;;;;;;15.80;99.90;;;;;;5115640;28;20502;-70
2021/06/07 06:46:33;;;;;;;;;;;15.80;99.90;;;;;;5115500;28;19995;-70
2021/06/07 06:49:02;;;;;;;;;;;15.80;99.90;;;;;;5114365;28;19908;-72
2021/06/07 06:51:29;;;;;;;;;;;15.70;99.90;;;;;;5115440;28;19914;-69
2021/06/07 06:53:56;;;;;;;;;;;15.60;99.90;;;;;;5113908;28;19907;-69
2021/06/07 06:56:23;;;;;;;;;;;15.60;99.90;;;;;;5114909;28;19995;-69
2021/06/07 06:58:50;;;;;;;;;;;15.50;99.90;;;;;;5114900;28;20063;-68
2021/06/07 07:01:17;;;;;;;;;;;15.50;99.90;;;;;;5114712;28;20277;-69
2021/06/07 07:03:45;;;;;;;;;;;15.40;99.90;;;;;;5114758;28;19908;-70
2021/06/07 07:06:12;;;;;;;;;;;15.40;99.90;;;;;;5113600;28;19915;-69
2021/06/07 07:08:39;;;;;;;;;;;15.30;99.90;;;;;;5115606;28;19961;-70
2021/06/07 07:11:05;;;;;;;;;;;15.20;99.90;;;;;;5115092;28;19915;-69
2021/06/07 07:13:32;;;;;;;;;;;15.20;99.90;;;;;;5114744;28;19930;-68
2021/06/07 07:15:59;;;;;;;;;;;15.20;99.90;;;;;;5114434;28;19908;-69
2021/06/07 07:18:26;;;;;;;;;;;15.20;99.90;;;;;;5093064;28;20367;-68
2021/06/07 07:20:52;;;;;;;;;;;15.10;99.90;;;;;;5073718;28;19975;-68
2021/06/07 07:23:19;;;;;;;;;;;15.10;99.90;;;;;;5073829;28;19914;-69
2021/06/07 07:25:48;;;;;;;;;;;15.10;99.90;;;;;;5089279;28;20266;-69
2021/06/07 07:28:15;;;;;;;;;;;15.10;99.90;;;;;;5073582;28;20007;-69
2021/06/07 07:30:41;;;;;;;;;;;15.10;99.90;;;;;;5073818;28;19915;-70
2021/06/07 07:33:08;;;;;;;;;;;15.00;99.90;;;;;;5073453;28;19916;-69
2021/06/07 07:35:35;;;;;;;;;;;15.00;99.90;;;;;;5073609;28;20464;-70
2021/06/07 07:38:03;;;;;;;;;;;15.00;99.90;;;;;;5089077;28;19908;-69
2021/06/07 07:40:30;;;;;;;;;;;15.00;99.90;;;;;;5072080;28;19908;-69
2021/06/07 07:42:58;;;;;;;;;;;15.00;99.90;;;;;;5071368;28;19993;-69
2021/06/07 07:45:27;;;;;;;;;;;15.10;99.90;;;;;;5071185;28;19947;-69
2021/06/07 07:47:54;;;;;;;;;;;15.00;99.90;;;;;;5071251;28;19915;-69
2021/06/07 07:50:21;;;;;;;;;;;15.00;99.90;;;;;;5071424;28;19912;-69
2021/06/07 07:52:50;;;;;;;;;;;15.00;99.90;;;;;;5070217;28;20162;-69
2021/06/07 07:55:18;;;;;;;;;;;15.00;99.90;;;;;;5071376;28;19909;-68
2021/06/07 07:57:46;;;;;;;;;;;14.90;99.90;;;;;;5071333;28;19912;-69
2021/06/07 08:00:14;;;;;;;;;;;14.90;99.90;;;;;;5103350;28;20353;-69
2021/06/07 08:02:40;;;;;;;;;;;14.90;99.90;;;;;;5070980;28;19908;-68
2021/06/07 08:05:08;;;;;;;;;;;14.90;99.90;;;;;;5071545;28;20422;-68
2021/06/07 08:07:34;;;;;;;;;;;14.90;99.90;;;;;;5071347;28;19923;-69
2021/06/07 08:10:01;;;;;;;;;;;14.80;99.90;;;;;;5071189;28;19912;-69
2021/06/07 08:12:29;;;;;;;;;;;14.80;99.90;;;;;;5071138;28;20432;-69
2021/06/07 08:14:56;;;;;;;;;;;14.80;99.90;;;;;;5070909;28;19908;-69
2021/06/07 08:17:23;;;;;;;;;;;14.80;99.90;;;;;;5103343;28;19944;-70
2021/06/07 08:19:49;;;;;;;;;;;14.80;99.90;;;;;;5070660;28;19912;-68
2021/06/07 08:22:17;;;;;;;;;;;14.70;99.90;;;;;;5071073;28;19917;-69
2021/06/07 08:24:44;;;;;;;;;;;14.70;99.90;;;;;;5070592;28;19922;-69
2021/06/07 08:27:10;;;;;;;;;;;14.70;99.90;;;;;;5071040;28;19967;-69
2021/06/07 08:29:37;;;;;;;;;;;14.70;99.90;;;;;;5070834;28;20339;-70
2021/06/07 08:32:04;;;;;;;;;;;14.70;99.90;;;;;;5070717;28;19913;-69
2021/06/07 08:34:31;;;;;;;;;;;14.70;99.90;;;;;;5071072;28;19912;-69
2021/06/07 08:36:57;;;;;;;;;;;14.70;99.90;;;;;;5070860;28;19956;-69
2021/06/07 08:39:24;;;;;;;;;;;14.70;99.90;;;;;;5070924;28;19912;-69
2021/06/07 08:41:51;;;;;;;;;;;14.70;99.90;;;;;;5070709;28;20407;-68
2021/06/07 08:44:17;;;;;;;;;;;14.60;99.90;;;;;;5103073;28;20363;-69
2021/06/07 08:46:45;;;;;;;;;;;14.60;99.90;;;;;;5070336;28;20291;-69
2021/06/07 08:49:12;;;;;;;;;;;14.60;99.90;;;;;;5070924;28;20073;-69
2021/06/07 08:51:40;;;;;;;;;;;14.60;99.90;;;;;;5070781;28;19909;-70
2021/06/07 08:54:07;;;;;;;;;;;14.60;99.90;;;;;;5070846;28;20152;-69
2021/06/07 08:56:34;;;;;;;;;;;14.50;99.90;;;;;;5070683;28;19999;-68
2021/06/07 08:59:00;;;;;;;;;;;14.50;99.90;;;;;;5070096;28;19954;-69
2021/06/07 09:01:27;;;;;;;;;;;14.50;99.90;;;;;;5070743;28;19909;-68
2021/06/07 09:03:54;;;;;;;;;;;14.40;99.90;;;;;;5069200;28;19909;-69
2021/06/07 09:06:24;;;;;;;;;;;14.40;99.90;;;;;;5071949;28;20283;-68
2021/06/07 09:09:01;;;;;;;;;;;14.40;99.90;;;;;;5072409;28;19944;-69
2021/06/07 09:11:28;;;;;;;;;;;14.40;99.90;;;;;;5072611;28;19909;-68
2021/06/07 09:13:54;;;;;;;;;;;14.40;99.90;;;;;;5076226;28;20003;-69
2021/06/07 09:16:21;;;;;;;;;;;14.40;99.90;;;;;;5076511;28;19992;-69
2021/06/07 09:18:48;;;;;;;;;;;14.30;99.90;;;;;;5076265;28;20329;-69
2021/06/07 09:21:17;;;;;;;;;;;14.30;99.90;;;;;;5076013;28;19920;-69
2021/06/07 09:23:48;;;;;;;;;;;14.30;99.90;;;;;;5076399;28;19915;-69
2021/06/07 09:26:42;;;;;;;;;;;14.30;99.90;;;;;;5076153;28;20360;-69
2021/06/07 09:29:13;;;;;;;;;;;14.20;99.90;;;;;;5074383;28;19922;-69
2021/06/07 09:31:44;;;;;;;;;;;14.20;99.90;;;;;;5076393;28;19908;-69
2021/06/07 09:34:12;;;;;;;;;;;14.10;99.90;;;;;;5076985;28;20359;-70
2021/06/07 09:36:40;;;;;;;;;;;14.10;99.90;;;;;;5076469;28;19908;-71
2021/06/07 09:39:21;;;;;;;;;;;14.10;99.90;;;;;;5075722;28;19909;-69
2021/06/07 09:41:52;;;;;;;;;;;14.10;99.90;;;;;;5075826;28;20346;-69
2021/06/07 09:44:23;;;;;;;;;;;14.00;99.90;;;;;;5091309;28;20278;-69
2021/06/07 09:46:51;;;;;;;;;;;14.00;99.90;;;;;;5091162;28;19916;-69
2021/06/07 09:49:20;;;;;;;;;;;14.00;99.90;;;;;;5075746;28;19923;-69
2021/06/07 09:51:58;;;;;;;;;;;14.00;99.90;;;;;;5075719;28;19916;-69
2021/06/07 09:54:26;;;;;;;;;;;14.00;99.90;;;;;;5075361;28;20369;-70
2021/06/07 09:56:54;;;;;;;;;;;14.00;99.90;;;;;;5075936;28;20003;-69
2021/06/07 09:59:28;;;;;;;;;;;13.90;99.90;;;;;;5075525;28;19908;-69
2021/06/07 10:01:56;;;;;;;;;;;13.90;99.90;;;;;;5075492;28;19916;-70
2021/06/07 10:04:43;;;;;;;;;;;13.90;99.90;;;;;;5075472;28;20003;-69
2021/06/07 10:07:09;;;;;;;;;;;13.90;99.90;;;;;;5075182;28;19924;-69
2021/06/07 10:09:36;;;;;;;;;;;13.90;99.90;;;;;;5074819;28;19916;-69
2021/06/07 10:12:03;;;;;;;;;;;13.90;99.90;;;;;;5075136;28;19923;-69
2021/06/07 10:14:29;;;;;;;;;;;13.90;99.90;;;;;;5073928;28;19908;-70
2021/06/07 10:16:59;;;;;;;;;;;13.90;99.90;;;;;;5075153;28;19916;-69
2021/06/07 10:19:41;;;;;;;;;;;13.90;99.90;;;;;;5075476;28;19915;-71
2021/06/07 10:22:08;;;;;;;;;;;13.80;99.90;;;;;;5086451;28;19946;-69
2021/06/07 10:24:34;;;;;;;;;;;13.80;99.90;;;;;;5091717;28;19943;-69
2021/06/07 10:27:02;;;;;;;;;;;13.70;99.90;;;;;;5091125;28;19942;-69
2021/06/07 10:29:36;;;;;;;;;;;13.60;99.90;;;;;;5092504;28;19924;-70
2021/06/07 10:32:17;;;;;;;;;;;13.60;99.90;;;;;;5091347;28;19908;-70
2021/06/07 10:34:48;;;;;;;;;;;13.50;99.90;;;;;;5085006;28;19930;-71
2021/06/07 10:37:15;;;;;;;;;;;13.50;99.90;;;;;;5076910;28;20385;-70
2021/06/07 10:39:42;;;;;;;;;;;13.50;99.90;;;;;;5077058;28;19909;-70
2021/06/07 10:42:08;;;;;;;;;;;13.50;99.90;;;;;;5076414;28;19915;-69
2021/06/07 10:44:36;;;;;;;;;;;13.60;99.90;;;;;;5076244;28;19917;-69
2021/06/07 10:47:04;;;;;;;;;;;13.60;99.90;;;;;;5075804;28;19923;-69
2021/06/07 10:49:33;;;;;;;;;;;13.60;99.90;;;;;;5076028;28;19909;-69
2021/06/07 10:52:19;;;;;;;;;;;13.60;99.90;;;;;;5075016;28;19916;-69
2021/06/07 10:54:47;;;;;;;;;;;13.60;99.90;;;;;;5073788;28;19916;-69
2021/06/07 10:57:32;;;;;;;;;;;13.70;99.90;;;;;;5074546;28;20271;-69
2021/06/07 11:00:00;;;;;;;;;;;13.70;99.90;;;;;;5074724;28;19908;-69
2021/06/07 11:02:32;;;;;;;;;;;13.80;99.90;;;;;;5074978;28;20013;-68
2021/06/07 11:05:08;;;;;;;;;;;13.80;99.90;;;;;;5073339;28;19908;-68
2021/06/07 11:07:36;;;;;;;;;;;13.90;99.90;;;;;;5071776;28;19920;-69
2021/06/07 11:10:19;;;;;;;;;;;13.90;99.90;;;;;;5071959;28;19919;-70
2021/06/07 11:12:47;;;;;;;;;;;13.90;99.90;;;;;;5072000;28;19915;-70
2021/06/07 11:15:14;;;;;;;;;;;13.90;99.90;;;;;;5072133;28;19909;-69
2021/06/07 11:17:41;;;;;;;;;;;13.90;99.90;;;;;;5071631;28;19908;-69
2021/06/07 11:20:08;;;;;;;;;;;13.90;99.90;;;;;;5070516;28;19915;-68
2021/06/07 11:22:53;;;;;;;;;;;13.90;99.90;;;;;;5071566;28;19912;-69
2021/06/07 11:25:20;;;;;;;;;;;13.90;99.90;;;;;;5071675;28;19959;-69
2021/06/07 11:27:46;;;;;;;;;;;13.90;99.90;;;;;;5071834;28;20041;-69
2021/06/07 11:30:18;;;;;;;;;;;14.00;99.90;;;;;;5071706;28;19947;-70
2021/06/07 11:32:45;;;;;;;;;;;14.00;99.90;;;;;;5071085;28;19915;-69
2021/06/07 11:35:37;;;;;;;;;;;14.00;99.90;;;;;;5071420;28;19915;-70
2021/06/07 11:38:22;;;;;;;;;;;14.00;99.90;;;;;;5070074;28;19974;-70
2021/06/07 11:40:49;;;;;;;;;;;13.90;99.90;;;;;;5071054;28;19912;-70
2021/06/07 11:43:15;;;;;;;;;;;14.00;99.90;;;;;;5071520;28;19955;-70
2021/06/07 11:45:43;;;;;;;;;;;13.90;99.90;;;;;;5070903;28;19947;-68
2021/06/07 11:48:11;;;;;;;;;;;14.00;99.90;;;;;;5071477;28;19912;-69
2021/06/07 11:50:41;;;;;;;;;;;13.90;99.90;;;;;;5071536;28;19961;-69
2021/06/07 11:53:12;;;;;;;;;;;13.90;99.90;;;;;;5071265;28;19912;-70
2021/06/07 11:55:39;;;;;;;;;;;14.00;99.90;;;;;;5071633;28;19936;-69
2021/06/07 11:58:06;;;;;;;;;;;13.90;99.90;;;;;;5071339;28;19950;-69
2021/06/07 12:00:34;;;;;;;;;;;14.00;99.80;;;;;;5072010;28;19915;-69
2021/06/07 12:03:07;;;;;;;;;;;14.00;99.90;;;;;;5104899;28;19912;-69
2021/06/07 12:05:34;;;;;;;;;;;13.90;99.80;;;;;;5072774;28;19925;-68
2021/06/07 12:08:05;;;;;;;;;;;13.90;99.90;;;;;;5073017;28;19908;-68
2021/06/07 12:10:32;;;;;;;;;;;13.90;99.90;;;;;;5072495;28;19939;-68
2021/06/07 12:13:18;;;;;;;;;;;13.90;99.90;;;;;;5072730;28;19916;-69
2021/06/07 12:15:49;;;;;;;;;;;13.90;99.60;;;;;;5073019;28;19995;-68
2021/06/07 12:18:27;;;;;;;;;;;13.90;99.80;;;;;;5073372;28;20327;-69
2021/06/07 12:21:23;;;;;;;;;;;13.90;99.90;;;;;;5073135;28;19956;-68
2021/06/07 12:23:56;;;;;;;;;;;13.90;99.90;;;;;;5069234;28;19967;-68
2021/06/07 12:29:35;;;;;;;;;;;13.90;99.90;;;;;;5072033;28;19915;-68
2021/06/07 12:32:06;;;;;;;;;;;13.90;99.70;;;;;;5062589;28;20379;-68
2021/06/07 12:34:33;;;;;;;;;;;13.90;99.90;;;;;;5071081;28;19985;-69
2021/06/07 12:37:00;;;;;;;;;;;13.90;99.90;;;;;;5069863;28;19909;-69
2021/06/07 12:39:27;;;;;;;;;;;13.90;99.90;;;;;;5070857;28;20256;-69
2021/06/07 12:41:54;;;;;;;;;;;13.90;99.90;;;;;;5070890;28;19908;-67
2021/06/07 12:44:21;;;;;;;;;;;13.90;99.90;;;;;;5070836;28;19915;-67
2021/06/07 12:46:53;;;;;;;;;;;13.90;99.90;;;;;;5071046;28;20278;-69
2021/06/07 12:49:23;;;;;;;;;;;13.80;99.80;;;;;;5073100;28;19912;-68
2021/06/07 12:52:00;;;;;;;;;;;13.80;99.90;;;;;;5074446;28;19924;-67
2021/06/07 12:54:30;;;;;;;;;;;13.80;99.90;;;;;;5074489;28;19908;-68
2021/06/07 12:56:59;;;;;;;;;;;13.80;99.90;;;;;;5074617;28;19952;-68
2021/06/07 12:59:30;;;;;;;;;;;13.80;99.90;;;;;;5074815;28;19913;-67
2021/06/07 13:01:57;;;;;;;;;;;13.80;99.90;;;;;;5074639;28;20038;-66
2021/06/07 13:04:27;;;;;;;;;;;13.80;99.90;;;;;;5080564;28;20418;-67
2021/06/07 13:06:54;;;;;;;;;;;13.80;99.90;;;;;;5093627;28;20018;-67
2021/06/07 13:09:36;;;;;;;;;;;13.80;99.90;;;;;;5093847;28;19919;-69
2021/06/07 13:12:03;;;;;;;;;;;13.80;99.90;;;;;;5094623;28;20124;-68
2021/06/07 13:14:30;;;;;;;;;;;13.70;99.90;;;;;;5094600;28;19915;-69
2021/06/07 13:17:11;;;;;;;;;;;13.70;99.90;;;;;;5094150;28;19912;-70
2021/06/07 13:19:43;;;;;;;;;;;13.70;99.90;;;;;;5094678;28;20017;-69
2021/06/07 13:22:10;;;;;;;;;;;13.70;99.90;;;;;;5094712;28;19914;-69
2021/06/07 13:24:41;;;;;;;;;;;13.70;99.90;;;;;;5094305;28;19915;-69
2021/06/07 13:27:09;;;;;;;;;;;13.60;99.90;;;;;;5094181;28;19927;-68
2021/06/07 13:29:42;;;;;;;;;;;13.60;99.90;;;;;;5094046;28;19962;-69
2021/06/07 13:32:16;;;;;;;;;;;13.50;99.90;;;;;;5092883;28;20015;-68
2021/06/07 13:34:54;;;;;;;;;;;13.60;99.90;;;;;;5094192;28;19908;-69
2021/06/07 13:37:34;;;;;;;;;;;13.50;99.90;;;;;;5094120;28;19916;-68
2021/06/07 13:40:05;;;;;;;;;;;13.60;99.90;;;;;;5094186;28;19947;-67
2021/06/07 13:42:41;;;;;;;;;;;13.60;99.90;;;;;;5093735;28;19964;-68
2021/06/07 13:45:09;;;;;;;;;;;13.60;99.90;;;;;;5093784;28;19930;-68
2021/06/07 13:47:38;;;;;;;;;;;13.60;99.90;;;;;;5093907;28;20363;-68
2021/06/07 13:50:15;;;;;;;;;;;13.60;99.90;;;;;;5094005;28;20330;-67
2021/06/07 13:52:49;;;;;;;;;;;13.60;99.90;;;;;;5095033;28;19916;-68
2021/06/07 13:55:16;;;;;;;;;;;13.50;99.90;;;;;;5095301;28;19908;-67
2021/06/07 13:58:01;;;;;;;;;;;13.50;99.90;;;;;;5096548;28;19908;-68
2021/06/07 14:00:29;;;;;;;;;;;13.50;99.90;;;;;;5094931;28;19915;-68
2021/06/07 14:02:56;;;;;;;;;;;13.50;99.90;;;;;;5094131;28;19908;-68
2021/06/07 14:05:24;;;;;;;;;;;13.50;99.90;;;;;;5075743;28;19919;-68
2021/06/07 14:07:51;;;;;;;;;;;13.50;99.90;;;;;;5094388;28;19916;-68
2021/06/07 14:10:18;;;;;;;;;;;13.40;99.90;;;;;;5094246;28;19999;-68
2021/06/07 14:12:45;;;;;;;;;;;13.40;99.90;;;;;;5093504;28;19959;-68
2021/06/07 14:15:12;;;;;;;;;;;13.40;99.90;;;;;;5093768;28;19912;-68
2021/06/07 14:17:42;;;;;;;;;;;13.30;99.90;;;;;;5093656;28;19912;-68
2021/06/07 14:20:09;;;;;;;;;;;13.30;99.90;;;;;;5093522;28;19908;-68
2021/06/07 14:25:20;;;;;;;;;;;13.20;99.90;;;;;;5093408;28;20393;-68
2021/06/07 14:27:47;;;;;;;;;;;13.10;99.90;;;;;;5093227;28;19920;-70
2021/06/07 14:30:14;;;;;;;;;;;13.20;99.90;;;;;;5093339;28;19908;-69
2021/06/07 14:32:41;;;;;;;;;;;13.10;99.90;;;;;;5093157;28;19912;-69